HSV weather

Huntsville International Carl T Jones Field
Huntsville, Alabama, United States

Public forecast

Using degrees Fahrenheit for public forecast. Weather courtesy of forecast.io.

Current aviation weather report (METAR) for Huntsville International Carl T Jones Field

Retrieved 2019/12/15 09:53 UTC (25 minutes ago):

KHSV 150953Z AUTO 03003KT 10SM CLR 07/05 A3002 RMK AO2 SLP167 T00720050

Aviation forecast (TAF) for Huntsville International Carl T Jones Field

Retrieved 2019/12/15 06:22 UTC (4 hours ago):

TAF KHSV 150520Z 1506/1606 36003KT P6SM SCT025 BKN040 TEMPO 1506/1510 00000KT P6SM BKN025 FM152100 14010KT P6SM BKN025 FM160200 16013KT P6SM SCT015 OVC025 WS020/19040KT